createdAt,value
2023-03-21T06:02:31.970Z,99979.59
2023-03-21T06:05:03.500Z,99978.59
2023-03-21T06:07:30.917Z,99981.97
2023-03-21T06:09:57.771Z,99985.38
2023-03-21T06:12:25.231Z,99977.47
2023-03-21T06:15:09.294Z,99971.94
2023-03-21T06:17:51.308Z,99978.84
2023-03-21T06:20:18.223Z,99979.69
2023-03-21T06:22:51.144Z,99986.63
2023-03-21T06:25:18.732Z,99983.88
2023-03-21T06:27:46.094Z,99980.19
2023-03-21T06:30:13.308Z,99981.91
2023-03-21T06:32:51.941Z,99977.34
2023-03-21T06:35:18.969Z,99972.91
2023-03-21T06:37:49.535Z,99978.22
2023-03-21T06:40:20.404Z,99984.47
2023-03-21T06:51:34.185Z,99971.06
2023-03-21T06:54:17.783Z,99980.59
2023-03-21T06:56:58.787Z,99980.53
2023-03-21T06:59:29.317Z,99984.63
2023-03-21T07:02:18.588Z,99984.47
2023-03-21T07:04:51.179Z,99980.88
2023-03-21T07:07:26.340Z,99979.91
2023-03-21T07:09:53.000Z,99980.47
2023-03-21T07:12:20.460Z,99976.03
2023-03-21T07:15:09.330Z,99974.19
2023-03-21T07:17:37.254Z,99990.78
2023-03-21T07:20:08.238Z,99984.47
2023-03-21T07:22:36.287Z,99985.22
2023-03-21T07:25:05.413Z,99996.72
2023-03-21T07:27:40.766Z,99986.84
2023-03-21T07:30:09.425Z,99984.28
2023-03-21T07:32:37.869Z,99985.09
2023-03-21T07:35:09.908Z,99986.84
2023-03-21T07:37:38.224Z,99984.91
2023-03-21T07:40:10.500Z,99988.16
2023-03-21T07:42:40.713Z,99983.72
2023-03-21T07:45:16.644Z,99981.75
2023-03-21T07:47:47.820Z,99991.22
2023-03-21T07:50:15.929Z,99979.66
2023-03-21T07:52:43.914Z,99983.13
2023-03-21T07:55:21.172Z,99979.66
2023-03-21T07:57:51.558Z,99981.41
2023-03-21T08:00:25.116Z,99990.19
2023-03-21T08:02:58.739Z,99991.06
2023-03-21T08:05:36.935Z,99982.31
2023-03-21T08:08:17.295Z,99996.19
2023-03-21T08:10:44.895Z,100001.50
2023-03-21T08:13:11.944Z,100000.63
2023-03-21T08:15:42.274Z,99990.94
2023-03-21T08:18:10.890Z,99996.19
2023-03-21T08:20:38.377Z,99990.00
2023-03-21T08:23:06.654Z,99995.28
2023-03-21T08:25:37.724Z,99985.78
2023-03-21T08:28:04.711Z,100002.72
2023-03-21T08:30:32.241Z,100011.00
2023-03-21T08:33:02.202Z,99993.19
2023-03-21T08:35:31.971Z,100002.97
2023-03-21T08:38:06.924Z,100003.97
2023-03-21T08:40:34.503Z,100005.81
2023-03-21T08:43:01.099Z,100003.00
2023-03-21T08:45:28.339Z,100009.03
2023-03-21T08:47:56.102Z,100015.44
2023-03-21T08:50:26.674Z,100008.34
2023-03-21T08:52:53.289Z,100003.00
2023-03-21T08:55:20.751Z,100007.31
2023-03-21T08:57:47.508Z,100012.56
2023-03-21T09:00:18.149Z,100017.81
2023-03-21T09:02:46.726Z,100005.69
2023-03-21T09:05:14.669Z,100008.28
2023-03-21T09:07:41.733Z,100007.63
2023-03-21T09:10:21.505Z,100007.63
2023-03-21T09:12:54.406Z,100006.78
2023-03-21T09:15:25.168Z,100006.25
2023-03-21T09:17:57.153Z,99997.38
2023-03-21T09:20:33.221Z,99996.56
2023-03-21T09:23:01.627Z,100000.19
2023-03-21T09:25:31.941Z,100003.78
2023-03-21T09:28:00.242Z,100008.00
2023-03-21T09:30:27.951Z,100004.53
2023-03-21T09:32:55.682Z,100004.41
2023-03-21T09:35:24.534Z,100009.72
2023-03-21T09:37:51.296Z,100012.06
2023-03-21T09:40:45.070Z,100013.66
2023-03-21T09:43:49.659Z,100006.53
2023-03-21T09:46:25.957Z,100001.34
2023-03-21T09:49:00.131Z,100000.59
2023-03-21T09:51:33.452Z,99999.78
2023-03-21T09:54:06.972Z,100009.16
2023-03-21T09:56:36.644Z,100011.97
2023-03-21T09:59:08.942Z,100003.19
2023-03-21T10:01:45.511Z,100002.97
2023-03-21T10:04:19.264Z,100000.16
2023-03-21T10:07:01.896Z,99998.34
2023-03-21T10:09:32.733Z,99995.13
2023-03-21T10:12:07.320Z,99995.03
2023-03-21T10:14:58.187Z,99999.34
2023-03-21T10:17:43.149Z,99992.16
2023-03-21T10:20:23.093Z,99981.25
2023-03-21T10:22:52.181Z,99985.53
2023-03-21T10:25:32.089Z,99980.34
2023-03-21T10:28:00.806Z,99972.84
2023-03-21T10:30:35.261Z,99976.09
2023-03-21T10:33:05.390Z,99968.97
2023-03-21T10:35:37.504Z,99984.09
2023-03-21T10:38:06.211Z,99977.22
2023-03-21T10:40:34.999Z,99972.84
2023-03-21T10:43:27.146Z,99971.72
2023-03-21T10:45:57.954Z,99983.09
2023-03-21T10:48:24.969Z,99967.88
2023-03-21T10:50:56.672Z,99967.69
2023-03-21T10:53:32.114Z,99961.69
2023-03-21T10:56:01.734Z,99968.44
2023-03-21T10:58:38.963Z,99969.72
2023-03-21T11:01:10.998Z,99970.59
2023-03-21T11:03:43.436Z,99964.53
2023-03-21T11:06:13.550Z,99962.81
2023-03-21T11:08:43.157Z,99962.47
2023-03-21T11:11:15.713Z,99962.47
2023-03-21T11:13:44.224Z,99963.19
2023-03-21T11:16:19.583Z,99961.34
2023-03-21T11:18:51.479Z,99962.69
2023-03-21T11:21:20.347Z,99959.09
2023-03-21T11:23:50.448Z,99958.13
2023-03-21T11:26:32.578Z,99957.25
2023-03-21T11:28:59.700Z,99955.47
2023-03-21T11:31:40.933Z,99954.28
2023-03-21T11:34:09.688Z,99947.97
2023-03-21T11:36:41.788Z,99948.84
2023-03-21T11:39:11.889Z,99949.81
2023-03-21T11:41:41.168Z,99946.63
2023-03-21T11:44:27.953Z,99944.84
2023-03-21T11:46:55.207Z,99943.00
2023-03-21T11:49:23.820Z,99932.22
2023-03-21T11:52:13.668Z,99926.19
2023-03-21T11:55:11.822Z,99916.03
2023-03-21T11:57:38.849Z,99926.69
2023-03-21T12:00:18.679Z,99924.81
2023-03-21T12:03:21.196Z,99906.38
2023-03-21T12:06:01.498Z,99903.44
2023-03-21T12:09:05.822Z,99910.56
2023-03-21T12:11:55.168Z,99907.97
2023-03-21T12:15:00.269Z,99900.44
2023-03-21T12:17:43.302Z,99899.00
2023-03-21T12:20:52.411Z,99895.22
2023-03-21T12:23:34.586Z,99893.25
2023-03-21T12:26:19.911Z,99892.88
2023-03-21T12:29:04.939Z,99878.47
2023-03-21T12:31:49.965Z,99880.34
2023-03-21T12:34:50.216Z,99879.44
2023-03-21T12:37:38.532Z,99875.63
2023-03-21T12:40:30.725Z,99867.69
2023-03-21T12:43:23.642Z,99866.94
2023-03-21T12:45:56.202Z,99864.38
2023-03-21T12:48:50.696Z,99863.25
2023-03-21T12:51:21.468Z,99870.78
2023-03-21T12:54:13.188Z,99856.66
2023-03-21T12:56:55.703Z,99856.66
2023-03-21T12:59:28.582Z,99851.72
2023-03-21T13:02:01.698Z,99849.88
2023-03-21T13:04:44.388Z,99853.34
2023-03-21T13:07:17.638Z,99847.22
2023-03-21T13:09:45.045Z,99858.13
2023-03-21T13:12:44.241Z,99851.53
2023-03-21T13:15:24.548Z,99847.06
2023-03-21T13:18:16.453Z,99833.59
2023-03-21T13:20:46.640Z,99841.38
2023-03-21T13:23:13.788Z,99828.53
2023-03-21T13:25:49.978Z,99834.00
2023-03-21T13:28:28.756Z,99828.38
2023-03-21T13:31:17.496Z,99829.53
2023-03-21T13:33:58.736Z,99826.56
2023-03-21T13:36:29.469Z,99822.59
2023-03-21T13:39:02.947Z,99831.84
2023-03-21T13:41:39.168Z,99830.69
2023-03-21T13:44:09.854Z,99821.75
2023-03-21T13:46:53.338Z,99808.50
2023-03-21T13:49:32.702Z,99816.78
2023-03-21T13:52:03.297Z,99811.31
2023-03-21T13:54:43.484Z,99794.09
2023-03-21T13:57:23.882Z,99795.94
2023-03-21T14:00:24.413Z,99789.81
2023-03-21T14:03:07.973Z,99793.78
2023-03-21T14:05:37.908Z,99777.63
2023-03-21T14:08:15.664Z,99768.22
2023-03-21T14:10:52.754Z,99766.56
2023-03-21T14:13:26.294Z,99762.63
2023-03-21T14:16:04.615Z,99758.31
2023-03-21T14:18:53.560Z,99753.78
2023-03-21T14:21:28.528Z,99743.44
2023-03-21T14:24:03.947Z,99752.38
2023-03-21T14:26:45.582Z,99753.25
2023-03-21T14:29:27.340Z,99729.19
2023-03-21T14:32:01.002Z,99725.72
2023-03-21T14:34:34.775Z,99726.88
2023-03-21T14:37:07.596Z,99741.63
2023-03-21T14:39:42.431Z,99741.47
2023-03-21T14:42:13.907Z,99734.78
2023-03-21T14:44:56.381Z,99730.94
2023-03-21T14:47:28.860Z,99737.81
2023-03-21T14:49:58.225Z,99736.22
2023-03-21T14:52:30.040Z,99731.53
2023-03-21T14:54:58.178Z,99730.72
2023-03-21T14:57:29.104Z,99719.44
2023-03-21T15:00:00.528Z,99726.63
2023-03-21T15:02:38.925Z,99717.84
2023-03-21T15:05:29.419Z,99710.16
2023-03-21T15:08:21.242Z,99710.16
2023-03-21T15:11:07.304Z,99690.06
2023-03-21T15:13:54.729Z,99690.38
2023-03-21T15:16:22.727Z,99699.28
2023-03-21T15:18:50.422Z,99699.72
2023-03-21T15:21:26.824Z,99679.09
2023-03-21T15:23:58.571Z,99679.84
2023-03-21T15:26:26.795Z,99685.34
2023-03-21T15:29:01.743Z,99691.59
2023-03-21T15:31:34.615Z,99687.06
2023-03-21T15:34:01.786Z,99693.25
2023-03-21T15:36:34.765Z,99686.22
2023-03-21T15:39:05.935Z,99672.53
2023-03-21T15:41:33.828Z,99685.06
2023-03-21T15:44:02.605Z,99685.06
2023-03-21T15:46:43.885Z,99679.72
2023-03-21T15:49:13.866Z,99687.66
2023-03-21T15:51:43.792Z,99679.97
2023-03-21T15:54:15.146Z,99682.22
2023-03-21T15:56:52.176Z,99679.59
2023-03-21T15:59:19.685Z,99685.25
2023-03-21T16:01:51.524Z,99677.56
2023-03-21T16:04:18.894Z,99671.28
2023-03-21T16:06:57.299Z,99681.94
2023-03-21T16:09:25.557Z,99674.25
2023-03-21T16:11:59.662Z,99663.75
2023-03-21T16:14:30.514Z,99669.19
2023-03-21T16:16:59.645Z,99665.13
2023-03-21T16:19:29.583Z,99661.50
2023-03-21T16:22:00.497Z,99671.34
2023-03-21T16:24:27.156Z,99670.69
2023-03-21T16:26:55.461Z,99668.84
2023-03-21T16:29:23.862Z,99677.47
2023-03-21T16:31:53.982Z,99676.81
2023-03-21T16:34:20.630Z,99667.13
2023-03-21T16:36:48.233Z,99662.81
2023-03-21T16:39:22.385Z,99668.13
2023-03-21T16:41:51.714Z,99674.16
2023-03-21T16:44:19.190Z,99669.19
2023-03-21T16:46:52.876Z,99665.53
2023-03-21T16:49:24.809Z,99654.38
2023-03-21T16:51:53.346Z,99659.41
2023-03-21T16:54:21.037Z,99656.75
2023-03-21T16:56:51.676Z,99663.97
2023-03-21T16:59:18.472Z,99667.53
2023-03-21T17:01:48.987Z,99668.28
2023-03-21T17:04:17.713Z,99663.81
2023-03-21T17:06:51.413Z,99664.06
2023-03-21T17:09:23.796Z,99668.63
2023-03-21T17:11:51.239Z,99670.63
2023-03-21T17:14:18.597Z,99675.28
2023-03-21T17:16:46.376Z,99680.47
2023-03-21T17:19:21.929Z,99682.41
2023-03-21T17:21:49.298Z,99679.75
2023-03-21T17:24:16.764Z,99687.91
2023-03-21T17:26:44.937Z,99685.13
2023-03-21T17:29:15.329Z,99679.13
2023-03-21T17:31:44.172Z,99673.81
2023-03-21T17:34:11.083Z,99668.97
2023-03-21T17:36:41.689Z,99673.44
2023-03-21T17:39:15.478Z,99672.63
2023-03-21T17:41:42.672Z,99671.03
2023-03-21T17:44:09.408Z,99674.34
2023-03-21T17:46:37.887Z,99677.81
2023-03-21T17:49:05.992Z,99674.66
2023-03-21T17:51:33.642Z,99682.81
2023-03-21T17:54:00.621Z,99681.00
2023-03-21T17:56:31.267Z,99687.28
2023-03-21T17:58:59.955Z,99686.47
2023-03-21T18:01:28.080Z,99702.56
2023-03-21T18:03:54.966Z,99706.19
2023-03-21T18:06:24.451Z,99701.78
2023-03-21T18:08:53.678Z,99705.22
2023-03-21T18:11:22.524Z,99701.91
2023-03-21T18:13:49.082Z,99709.09
2023-03-21T18:16:22.699Z,99703.63
2023-03-21T18:18:50.844Z,99701.63
2023-03-21T18:21:20.230Z,99702.91
2023-03-21T18:23:47.793Z,99701.19
2023-03-21T18:26:18.467Z,99701.78
2023-03-21T18:28:46.763Z,99707.09
2023-03-21T18:31:20.657Z,99707.09
2023-03-21T18:33:48.678Z,99702.75
2023-03-21T18:36:24.985Z,99699.34
2023-03-21T18:38:52.050Z,99696.59
2023-03-21T18:41:20.012Z,99694.88
2023-03-21T18:44:05.410Z,99701.91
2023-03-21T18:46:34.154Z,99700.06
2023-03-21T18:49:20.005Z,99695.59
2023-03-21T18:51:48.272Z,99707.09
2023-03-21T18:54:14.925Z,99699.25
2023-03-21T18:59:34.527Z,99700.97
2023-03-21T19:02:06.133Z,99700.06
2023-03-21T19:04:33.758Z,99700.09
2023-03-21T19:07:00.709Z,99699.34
2023-03-21T19:09:31.591Z,99697.53
2023-03-21T19:11:59.537Z,99704.56
2023-03-21T19:14:26.454Z,99698.19
2023-03-21T19:17:41.378Z,99701.78
2023-03-21T19:19:43.656Z,99688.41
2023-03-21T19:22:11.705Z,99693.94
2023-03-21T19:24:39.591Z,99685.81
2023-03-21T19:27:07.865Z,99684.25
2023-03-21T19:29:34.502Z,99676.13
2023-03-21T19:32:01.832Z,99671.78
2023-03-21T19:34:29.408Z,99682.34
2023-03-21T19:36:57.679Z,99673.38
2023-03-21T19:39:25.046Z,99683.09
2023-03-21T19:41:55.354Z,99683.09
2023-03-21T19:44:30.825Z,99696.31
2023-03-21T19:46:58.188Z,99676.13
2023-03-21T19:49:37.050Z,99670.84
2023-03-21T19:52:13.731Z,99666.38
2023-03-21T19:54:40.446Z,99666.38
2023-03-21T19:57:09.905Z,99675.41
2023-03-21T19:59:36.508Z,99670.13
2023-03-21T20:02:24.971Z,99676.50
2023-03-21T20:04:51.677Z,99667.75
2023-03-21T20:07:18.912Z,99676.72
2023-03-21T20:09:52.589Z,99671.47
2023-03-21T20:12:22.248Z,99663.63
2023-03-21T20:14:49.247Z,99670.84
2023-03-21T20:17:17.148Z,99676.56
2023-03-21T20:19:43.797Z,99673.19
2023-03-21T20:22:21.849Z,99669.75
2023-03-21T20:24:55.120Z,99669.78
2023-03-21T20:27:25.540Z,99673.44
2023-03-21T20:30:09.826Z,99677.09
2023-03-21T20:32:43.134Z,99673.72
2023-03-21T20:35:20.651Z,99665.91
2023-03-21T20:37:52.855Z,99671.38
2023-03-21T20:40:21.403Z,99665.13
2023-03-21T20:42:49.133Z,99670.50
2023-03-21T20:45:17.314Z,99663.53
2023-03-21T20:47:44.821Z,99674.28
2023-03-21T20:50:13.942Z,99678.84
2023-03-21T20:53:01.282Z,99665.69
2023-03-21T20:55:34.195Z,99664.88
2023-03-21T20:58:02.418Z,99665.88
2023-03-21T21:00:29.485Z,99658.91
2023-03-21T21:02:58.048Z,99655.47
2023-03-21T21:05:30.633Z,99659.88
2023-03-21T21:08:02.154Z,99654.53
2023-03-21T21:10:29.593Z,99648.41
2023-03-21T21:12:57.146Z,99657.31
2023-03-21T21:15:23.787Z,99653.81
2023-03-21T21:18:08.703Z,99653.84
2023-03-21T21:20:37.964Z,99643.34
2023-03-21T21:23:05.572Z,99642.41
2023-03-21T21:25:33.680Z,99642.50
2023-03-21T21:28:02.238Z,99645.22
